EWG3LR LDPL-EDSB
Flight info
| Callsign | EWG3LR |
|---|---|
| Flight time | 1h 0m |
| Altitude | 38000 |
| Route | GIRDA DCT URAVA DCT VEKEN DCT ERKIR L608 KPT L856 ROMIR N851 LEBSO Z714 SUL SUL1L |
| Aircraft | A319/M-SDE3FGHIRWY/LB1 |
Departure
| Time | 2026-05-06 12:07 |
|---|---|
| Airport | Pula Airport (LDPL) |
Arrival
| Time | 2026-05-06 13:07 |
|---|---|
| Airport | Karlsruhe Baden-Baden Airport (EDSB) |
| Time | Latitude | Longitude | Altitude | Speed | Heading |
|---|---|---|---|---|---|
| 2026-05-06 12:00 | 44.89737 | 13.92511 | 226 ft | 0 kts | 315° |
| 2026-05-06 12:01 | 44.89740 | 13.92506 | 228 ft | 0 kts | 315° |
| 2026-05-06 12:04 | 44.89741 | 13.92505 | 228 ft | 1 kts | 315° |
| 2026-05-06 12:04 | 44.89743 | 13.92478 | 226 ft | 6 kts | 261° |
| 2026-05-06 12:04 | 44.89693 | 13.92456 | 226 ft | 13 kts | 162° |
| 2026-05-06 12:04 | 44.89599 | 13.92482 | 226 ft | 14 kts | 134° |
| 2026-05-06 12:05 | 44.89582 | 13.92627 | 223 ft | 17 kts | 88° |
| 2026-05-06 12:05 | 44.89588 | 13.92812 | 224 ft | 21 kts | 88° |
| 2026-05-06 12:05 | 44.89594 | 13.93045 | 227 ft | 26 kts | 88° |
| 2026-05-06 12:05 | 44.89572 | 13.93307 | 228 ft | 29 kts | 121° |
| 2026-05-06 12:06 | 44.89446 | 13.93492 | 226 ft | 17 kts | 161° |
| 2026-05-06 12:06 | 44.89379 | 13.93442 | 226 ft | 15 kts | 263° |
| 2026-05-06 12:06 | 44.89371 | 13.92878 | 225 ft | 103 kts | 268° |
| 2026-05-06 12:06 | 44.89333 | 13.91482 | 269 ft | 173 kts | 265° |
| 2026-05-06 12:07 | 44.89305 | 13.89795 | 1106 ft | 170 kts | 259° |
| 2026-05-06 12:07 | 44.89229 | 13.88124 | 1906 ft | 177 kts | 258° |
| 2026-05-06 12:07 | 44.89150 | 13.86276 | 2458 ft | 202 kts | 262° |
| 2026-05-06 12:07 | 44.89096 | 13.84216 | 3274 ft | 212 kts | 263° |
| 2026-05-06 12:08 | 44.89054 | 13.82145 | 4445 ft | 210 kts | 264° |
| 2026-05-06 12:08 | 44.89012 | 13.80099 | 5390 ft | 209 kts | 265° |
| 2026-05-06 12:08 | 44.89010 | 13.78036 | 6204 ft | 214 kts | 274° |
| 2026-05-06 12:08 | 44.89684 | 13.76131 | 6930 ft | 230 kts | 311° |
| 2026-05-06 12:09 | 44.91186 | 13.75095 | 7512 ft | 255 kts | 346° |
| 2026-05-06 12:09 | 44.92989 | 13.74815 | 7893 ft | 264 kts | 353° |
| 2026-05-06 12:09 | 44.94830 | 13.74750 | 7969 ft | 265 kts | 356° |
| 2026-05-06 12:09 | 44.96696 | 13.74898 | 7997 ft | 282 kts | 10° |
| 2026-05-06 12:10 | 44.98582 | 13.76012 | 8439 ft | 303 kts | 26° |
| 2026-05-06 12:10 | 45.00479 | 13.77423 | 9264 ft | 312 kts | 26° |
| 2026-05-06 12:10 | 45.02414 | 13.78890 | 10190 ft | 320 kts | 27° |
| 2026-05-06 12:10 | 45.04447 | 13.80440 | 10569 ft | 344 kts | 27° |
| 2026-05-06 12:11 | 45.06613 | 13.82086 | 11103 ft | 359 kts | 27° |
| 2026-05-06 12:11 | 45.08831 | 13.83768 | 11896 ft | 364 kts | 27° |
| 2026-05-06 12:11 | 45.11074 | 13.85468 | 12682 ft | 368 kts | 27° |
| 2026-05-06 12:11 | 45.13347 | 13.87190 | 13406 ft | 373 kts | 27° |
| 2026-05-06 12:12 | 45.15643 | 13.88937 | 14061 ft | 377 kts | 27° |
| 2026-05-06 12:12 | 45.17965 | 13.90706 | 14705 ft | 381 kts | 27° |
| 2026-05-06 12:12 | 45.20310 | 13.92496 | 15332 ft | 384 kts | 27° |
| 2026-05-06 12:12 | 45.22675 | 13.94299 | 15929 ft | 388 kts | 27° |
| 2026-05-06 12:13 | 45.25059 | 13.96118 | 16533 ft | 391 kts | 27° |
| 2026-05-06 12:13 | 45.27466 | 13.97961 | 17148 ft | 395 kts | 27° |
| 2026-05-06 12:13 | 45.29895 | 13.99825 | 17736 ft | 398 kts | 27° |
| 2026-05-06 12:13 | 45.32348 | 14.01704 | 18310 ft | 403 kts | 27° |
| 2026-05-06 12:14 | 45.34827 | 14.03599 | 18804 ft | 407 kts | 27° |
| 2026-05-06 12:14 | 45.37332 | 14.05521 | 19331 ft | 411 kts | 27° |
| 2026-05-06 12:14 | 45.39861 | 14.07464 | 19866 ft | 415 kts | 27° |
| 2026-05-06 12:14 | 45.42441 | 14.09329 | 20400 ft | 417 kts | 21° |
| 2026-05-06 12:15 | 45.45215 | 14.10548 | 20935 ft | 418 kts | 8° |
| 2026-05-06 12:15 | 45.48097 | 14.10977 | 21459 ft | 417 kts | 356° |
| 2026-05-06 12:15 | 45.50982 | 14.10610 | 21992 ft | 415 kts | 345° |
| 2026-05-06 12:15 | 45.53710 | 14.09501 | 22494 ft | 412 kts | 333° |
| 2026-05-06 12:16 | 45.56345 | 14.07870 | 23002 ft | 414 kts | 331° |
| 2026-05-06 12:16 | 45.58985 | 14.06202 | 23502 ft | 417 kts | 331° |
| 2026-05-06 12:16 | 45.61648 | 14.04518 | 23919 ft | 419 kts | 331° |
| 2026-05-06 12:16 | 45.64323 | 14.02826 | 24333 ft | 421 kts | 331° |
| 2026-05-06 12:17 | 45.67011 | 14.01125 | 24753 ft | 423 kts | 330° |
| 2026-05-06 12:17 | 45.69712 | 13.99418 | 25177 ft | 426 kts | 330° |
| 2026-05-06 12:17 | 45.72426 | 13.97701 | 25592 ft | 428 kts | 330° |
| 2026-05-06 12:17 | 45.75154 | 13.95971 | 25989 ft | 430 kts | 330° |
| 2026-05-06 12:18 | 45.77893 | 13.94233 | 26381 ft | 432 kts | 330° |
| 2026-05-06 12:18 | 45.80647 | 13.92483 | 26745 ft | 434 kts | 329° |
| 2026-05-06 12:18 | 45.83410 | 13.90722 | 27129 ft | 436 kts | 330° |
| 2026-05-06 12:18 | 45.86188 | 13.88951 | 27576 ft | 439 kts | 329° |
| 2026-05-06 12:19 | 45.88985 | 13.87167 | 27980 ft | 441 kts | 329° |
| 2026-05-06 12:19 | 45.91801 | 13.85370 | 28359 ft | 444 kts | 329° |
| 2026-05-06 12:19 | 45.94631 | 13.83563 | 28758 ft | 446 kts | 329° |
| 2026-05-06 12:19 | 45.97473 | 13.81744 | 29130 ft | 448 kts | 329° |
| 2026-05-06 12:20 | 46.00329 | 13.79914 | 29494 ft | 450 kts | 329° |
| 2026-05-06 12:20 | 46.03195 | 13.78073 | 29865 ft | 453 kts | 329° |
| 2026-05-06 12:20 | 46.06075 | 13.76222 | 30170 ft | 454 kts | 329° |
| 2026-05-06 12:20 | 46.08967 | 13.74363 | 30462 ft | 456 kts | 329° |
| 2026-05-06 12:21 | 46.11869 | 13.72498 | 30756 ft | 458 kts | 329° |
| 2026-05-06 12:21 | 46.14779 | 13.70622 | 31035 ft | 459 kts | 329° |
| 2026-05-06 12:21 | 46.17703 | 13.68734 | 31292 ft | 461 kts | 329° |
| 2026-05-06 12:21 | 46.20634 | 13.66844 | 31573 ft | 462 kts | 328° |
| 2026-05-06 12:22 | 46.23573 | 13.64948 | 31894 ft | 463 kts | 328° |
| 2026-05-06 12:22 | 46.26510 | 13.63049 | 32270 ft | 462 kts | 328° |
| 2026-05-06 12:22 | 46.29441 | 13.61147 | 32686 ft | 461 kts | 328° |
| 2026-05-06 12:22 | 46.32321 | 13.59275 | 33096 ft | 459 kts | 327° |
| 2026-05-06 12:23 | 46.35228 | 13.57386 | 33545 ft | 457 kts | 327° |
| 2026-05-06 12:23 | 46.38127 | 13.55504 | 33983 ft | 455 kts | 327° |
| 2026-05-06 12:23 | 46.40988 | 13.53566 | 34342 ft | 449 kts | 323° |
| 2026-05-06 12:23 | 46.43603 | 13.51186 | 34708 ft | 440 kts | 316° |
| 2026-05-06 12:24 | 46.46086 | 13.48595 | 35033 ft | 440 kts | 316° |
| 2026-05-06 12:24 | 46.48573 | 13.46017 | 35328 ft | 440 kts | 317° |
| 2026-05-06 12:24 | 46.51059 | 13.43439 | 35602 ft | 440 kts | 317° |
| 2026-05-06 12:24 | 46.53555 | 13.40851 | 35926 ft | 440 kts | 317° |
| 2026-05-06 12:25 | 46.56034 | 13.38244 | 36201 ft | 438 kts | 314° |
| 2026-05-06 12:25 | 46.58322 | 13.35282 | 36495 ft | 433 kts | 309° |
| 2026-05-06 12:25 | 46.60484 | 13.32314 | 36795 ft | 433 kts | 310° |
| 2026-05-06 12:25 | 46.62675 | 13.29302 | 37110 ft | 432 kts | 310° |
| 2026-05-06 12:26 | 46.64854 | 13.26299 | 37407 ft | 432 kts | 311° |
| 2026-05-06 12:26 | 46.67036 | 13.23292 | 37677 ft | 431 kts | 311° |
| 2026-05-06 12:26 | 46.69213 | 13.20286 | 37877 ft | 432 kts | 311° |
| 2026-05-06 12:26 | 46.71393 | 13.17274 | 37927 ft | 432 kts | 311° |
| 2026-05-06 12:27 | 46.75748 | 13.11242 | 37924 ft | 432 kts | 311° |
| 2026-05-06 12:27 | 46.80114 | 13.05201 | 37923 ft | 433 kts | 311° |
| 2026-05-06 12:28 | 46.84483 | 12.99136 | 37913 ft | 434 kts | 311° |
| 2026-05-06 12:28 | 46.88842 | 12.93052 | 37900 ft | 433 kts | 310° |
| 2026-05-06 12:29 | 46.93205 | 12.86963 | 37881 ft | 433 kts | 311° |
| 2026-05-06 12:29 | 46.97562 | 12.80882 | 37871 ft | 433 kts | 310° |
| 2026-05-06 12:30 | 47.01915 | 12.74783 | 37868 ft | 433 kts | 310° |
| 2026-05-06 12:30 | 47.06261 | 12.68676 | 37846 ft | 433 kts | 310° |
| 2026-05-06 12:31 | 47.10612 | 12.62539 | 37875 ft | 434 kts | 309° |
| 2026-05-06 12:31 | 47.14967 | 12.56384 | 37808 ft | 434 kts | 309° |
| 2026-05-06 12:32 | 47.19327 | 12.50204 | 37794 ft | 435 kts | 309° |
| 2026-05-06 12:32 | 47.23672 | 12.44038 | 37792 ft | 438 kts | 309° |
| 2026-05-06 12:33 | 47.28060 | 12.37795 | 37777 ft | 439 kts | 309° |
| 2026-05-06 12:33 | 47.32452 | 12.31532 | 37762 ft | 440 kts | 309° |
| 2026-05-06 12:34 | 47.36847 | 12.25257 | 37783 ft | 440 kts | 309° |
| 2026-05-06 12:34 | 47.41250 | 12.18954 | 37755 ft | 441 kts | 309° |
| 2026-05-06 12:35 | 47.45651 | 12.12626 | 37758 ft | 442 kts | 309° |
| 2026-05-06 12:35 | 47.50051 | 12.06267 | 37751 ft | 440 kts | 307° |
| 2026-05-06 12:36 | 47.53468 | 11.99002 | 37751 ft | 425 kts | 289° |
| 2026-05-06 12:36 | 47.55193 | 11.90814 | 37735 ft | 413 kts | 276° |
| 2026-05-06 12:37 | 47.56357 | 11.82490 | 37734 ft | 414 kts | 276° |
| 2026-05-06 12:37 | 47.57530 | 11.74139 | 37730 ft | 415 kts | 276° |
| 2026-05-06 12:38 | 47.58703 | 11.65742 | 37728 ft | 417 kts | 276° |
| 2026-05-06 12:38 | 47.59861 | 11.57315 | 37724 ft | 418 kts | 276° |
| 2026-05-06 12:39 | 47.61020 | 11.48854 | 37725 ft | 419 kts | 276° |
| 2026-05-06 12:39 | 47.62171 | 11.40392 | 37736 ft | 419 kts | 276° |
| 2026-05-06 12:40 | 47.63264 | 11.31905 | 37745 ft | 419 kts | 275° |
| 2026-05-06 12:40 | 47.64275 | 11.23399 | 37746 ft | 419 kts | 274° |
| 2026-05-06 12:41 | 47.65273 | 11.14866 | 37745 ft | 420 kts | 274° |
| 2026-05-06 12:41 | 47.66283 | 11.06323 | 37758 ft | 421 kts | 275° |
| 2026-05-06 12:42 | 47.67302 | 10.97819 | 37762 ft | 421 kts | 275° |
| 2026-05-06 12:42 | 47.68321 | 10.89252 | 37781 ft | 422 kts | 275° |
| 2026-05-06 12:43 | 47.69333 | 10.80664 | 37786 ft | 423 kts | 275° |
| 2026-05-06 12:43 | 47.70336 | 10.72061 | 37783 ft | 423 kts | 275° |
| 2026-05-06 12:44 | 47.71168 | 10.64837 | 37781 ft | 423 kts | 275° |
| 2026-05-06 12:44 | 47.72152 | 10.56273 | 37788 ft | 424 kts | 275° |
| 2026-05-06 12:45 | 47.73143 | 10.47642 | 37805 ft | 424 kts | 275° |
| 2026-05-06 12:46 | 47.74508 | 10.34653 | 37797 ft | 421 kts | 268° |
| 2026-05-06 12:46 | 47.74375 | 10.26006 | 37799 ft | 418 kts | 264° |
| 2026-05-06 12:47 | 47.74178 | 10.17359 | 37791 ft | 419 kts | 264° |
| 2026-05-06 12:47 | 47.73985 | 10.08700 | 37799 ft | 419 kts | 264° |
| 2026-05-06 12:48 | 47.73774 | 10.00036 | 37789 ft | 420 kts | 264° |
| 2026-05-06 12:48 | 47.73557 | 9.91350 | 37794 ft | 420 kts | 264° |
| 2026-05-06 12:49 | 47.73331 | 9.82668 | 37797 ft | 420 kts | 264° |
| 2026-05-06 12:49 | 47.73103 | 9.73990 | 37801 ft | 421 kts | 264° |
| 2026-05-06 12:50 | 47.72952 | 9.65297 | 37811 ft | 424 kts | 272° |
| 2026-05-06 12:50 | 47.73593 | 9.60996 | 37810 ft | 432 kts | 288° |
| 2026-05-06 12:50 | 47.75052 | 9.57039 | 37414 ft | 446 kts | 304° |
| 2026-05-06 12:50 | 47.77319 | 9.53896 | 36784 ft | 462 kts | 323° |
| 2026-05-06 12:51 | 47.80251 | 9.51656 | 36164 ft | 471 kts | 330° |
| 2026-05-06 12:51 | 47.83228 | 9.49573 | 35578 ft | 474 kts | 329° |
| 2026-05-06 12:51 | 47.86219 | 9.47447 | 34990 ft | 477 kts | 328° |
| 2026-05-06 12:51 | 47.89215 | 9.45295 | 34391 ft | 479 kts | 328° |
| 2026-05-06 12:52 | 47.92179 | 9.43150 | 33815 ft | 481 kts | 327° |
| 2026-05-06 12:52 | 47.95195 | 9.40956 | 33133 ft | 483 kts | 327° |
| 2026-05-06 12:52 | 47.98212 | 9.38757 | 32477 ft | 483 kts | 327° |
| 2026-05-06 12:52 | 48.01237 | 9.36559 | 31891 ft | 483 kts | 328° |
| 2026-05-06 12:53 | 48.04259 | 9.34367 | 31301 ft | 483 kts | 328° |
| 2026-05-06 12:53 | 48.07279 | 9.32177 | 30735 ft | 481 kts | 329° |
| 2026-05-06 12:53 | 48.10283 | 9.29999 | 30161 ft | 480 kts | 329° |
| 2026-05-06 12:53 | 48.13284 | 9.27820 | 29564 ft | 478 kts | 329° |
| 2026-05-06 12:54 | 48.16271 | 9.25647 | 28900 ft | 476 kts | 329° |
| 2026-05-06 12:54 | 48.19238 | 9.23479 | 28265 ft | 473 kts | 329° |
| 2026-05-06 12:54 | 48.22020 | 9.20944 | 27633 ft | 463 kts | 317° |
| 2026-05-06 12:54 | 48.24284 | 9.17610 | 27023 ft | 451 kts | 304° |
| 2026-05-06 12:55 | 48.25873 | 9.13919 | 26451 ft | 441 kts | 292° |
| 2026-05-06 12:55 | 48.27053 | 9.09628 | 25862 ft | 433 kts | 287° |
| 2026-05-06 12:55 | 48.28114 | 9.05423 | 25284 ft | 429 kts | 286° |
| 2026-05-06 12:55 | 48.29151 | 9.01237 | 24737 ft | 426 kts | 287° |
| 2026-05-06 12:56 | 48.30171 | 8.97078 | 24183 ft | 422 kts | 287° |
| 2026-05-06 12:56 | 48.31180 | 8.92954 | 23640 ft | 419 kts | 288° |
| 2026-05-06 12:56 | 48.32181 | 8.88863 | 23056 ft | 416 kts | 288° |
| 2026-05-06 12:56 | 48.33181 | 8.84795 | 22419 ft | 413 kts | 288° |
| 2026-05-06 12:57 | 48.34180 | 8.80755 | 21799 ft | 410 kts | 288° |
| 2026-05-06 12:57 | 48.35170 | 8.76746 | 21196 ft | 407 kts | 288° |
| 2026-05-06 12:57 | 48.36147 | 8.72767 | 20603 ft | 405 kts | 288° |
| 2026-05-06 12:57 | 48.37116 | 8.68805 | 20026 ft | 402 kts | 288° |
| 2026-05-06 12:58 | 48.38355 | 8.65036 | 19449 ft | 404 kts | 301° |
| 2026-05-06 12:58 | 48.40192 | 8.61839 | 18901 ft | 406 kts | 316° |
| 2026-05-06 12:58 | 48.42294 | 8.59091 | 18360 ft | 406 kts | 317° |
| 2026-05-06 12:58 | 48.44432 | 8.56315 | 17763 ft | 405 kts | 317° |
| 2026-05-06 12:59 | 48.46560 | 8.53551 | 17151 ft | 404 kts | 317° |
| 2026-05-06 12:59 | 48.48683 | 8.50787 | 16547 ft | 401 kts | 317° |
| 2026-05-06 12:59 | 48.50786 | 8.48042 | 15955 ft | 399 kts | 317° |
| 2026-05-06 12:59 | 48.52871 | 8.45312 | 15365 ft | 396 kts | 317° |
| 2026-05-06 13:00 | 48.54939 | 8.42600 | 14773 ft | 393 kts | 317° |
| 2026-05-06 13:00 | 48.56896 | 8.39759 | 14158 ft | 388 kts | 308° |
| 2026-05-06 13:00 | 48.58267 | 8.36301 | 13553 ft | 382 kts | 290° |
| 2026-05-06 13:00 | 48.58896 | 8.32465 | 12886 ft | 375 kts | 274° |
| 2026-05-06 13:01 | 48.59007 | 8.28545 | 12236 ft | 371 kts | 270° |
| 2026-05-06 13:01 | 48.59089 | 8.24666 | 11591 ft | 368 kts | 270° |
| 2026-05-06 13:01 | 48.59168 | 8.20824 | 10959 ft | 363 kts | 270° |
| 2026-05-06 13:01 | 48.59243 | 8.17077 | 10329 ft | 350 kts | 271° |
| 2026-05-06 13:02 | 48.59314 | 8.13471 | 9724 ft | 337 kts | 270° |
| 2026-05-06 13:02 | 48.59383 | 8.09991 | 9063 ft | 326 kts | 271° |
| 2026-05-06 13:02 | 48.59449 | 8.06625 | 8408 ft | 316 kts | 271° |
| 2026-05-06 13:02 | 48.59513 | 8.03343 | 7772 ft | 308 kts | 271° |
| 2026-05-06 13:03 | 48.59576 | 8.00139 | 7145 ft | 302 kts | 270° |
| 2026-05-06 13:03 | 48.59708 | 7.97010 | 6520 ft | 296 kts | 280° |
| 2026-05-06 13:03 | 48.60629 | 7.94278 | 5892 ft | 296 kts | 312° |
| 2026-05-06 13:03 | 48.62373 | 7.92704 | 5247 ft | 298 kts | 343° |
| 2026-05-06 13:04 | 48.64431 | 7.92761 | 4611 ft | 301 kts | 17° |
| 2026-05-06 13:04 | 48.66221 | 7.94349 | 4094 ft | 296 kts | 40° |
| 2026-05-06 13:04 | 48.67690 | 7.96395 | 3838 ft | 278 kts | 43° |
| 2026-05-06 13:04 | 48.69053 | 7.98385 | 3243 ft | 268 kts | 45° |
| 2026-05-06 13:05 | 48.70271 | 8.00410 | 2666 ft | 259 kts | 50° |
| 2026-05-06 13:05 | 48.71547 | 8.02268 | 2068 ft | 251 kts | 34° |
| 2026-05-06 13:05 | 48.73042 | 8.03471 | 1526 ft | 238 kts | 24° |
| 2026-05-06 13:05 | 48.74428 | 8.04715 | 1052 ft | 226 kts | 35° |
| 2026-05-06 13:06 | 48.75702 | 8.06001 | 690 ft | 212 kts | 30° |
| 2026-05-06 13:06 | 48.76907 | 8.07082 | 476 ft | 190 kts | 30° |
| 2026-05-06 13:06 | 48.77920 | 8.08041 | 416 ft | 154 kts | 32° |
| 2026-05-06 13:06 | 48.78595 | 8.08670 | 413 ft | 70 kts | 32° |
| 2026-05-06 13:07 | 48.78870 | 8.08930 | 411 ft | 43 kts | 32° |
| 2026-05-06 13:07 | 48.79051 | 8.09105 | 412 ft | 19 kts | 40° |
| 2026-05-06 13:07 | 48.79064 | 8.09148 | 413 ft | 4 kts | 115° |
| 2026-05-06 13:07 | 48.79032 | 8.09223 | 416 ft | 13 kts | 128° |
| 2026-05-06 13:08 | 48.78952 | 8.09292 | 416 ft | 15 kts | 187° |
| 2026-05-06 13:08 | 48.78850 | 8.09213 | 412 ft | 18 kts | 213° |
| 2026-05-06 13:08 | 48.78740 | 8.09098 | 412 ft | 21 kts | 215° |
| 2026-05-06 13:08 | 48.78612 | 8.08971 | 412 ft | 23 kts | 210° |
| 2026-05-06 13:09 | 48.78465 | 8.08838 | 413 ft | 26 kts | 211° |
| 2026-05-06 13:09 | 48.78305 | 8.08685 | 408 ft | 25 kts | 213° |
| 2026-05-06 13:09 | 48.78187 | 8.08579 | 413 ft | 17 kts | 197° |
| 2026-05-06 13:09 | 48.78111 | 8.08670 | 409 ft | 12 kts | 123° |
| 2026-05-06 13:10 | 48.78093 | 8.08717 | 411 ft | 1 kts | 119° |
| 2026-05-06 13:10 | 48.78092 | 8.08721 | 412 ft | 1 kts | 119° |
| 2026-05-06 13:10 | 48.78073 | 8.08731 | 413 ft | 7 kts | 181° |
| 2026-05-06 13:10 | 48.78038 | 8.08749 | 408 ft | 4 kts | 128° |
| 2026-05-06 13:11 | 48.78021 | 8.08788 | 410 ft | 4 kts | 126° |
| 2026-05-06 13:11 | 48.78018 | 8.08793 | 411 ft | 0 kts | 128° |
| 2026-05-06 13:11 | 48.78015 | 8.08765 | 416 ft | 0 kts | 104° |